Time;durP1;ratioP1;P1;durP2;ratioP2;P2;SDS_P1;SDS_P2;PMS_P1;PMS_P2;Temp;Humidity;BMP_temperature;BMP_pressure;BME280_temperature;BME280_humidity;BME280_pressure;Samples;Min_cycle;Max_cycle;Signal;HPM_P1;HPM_P2
2023/07/17 00:00:15;;;;;;;24.92;21.95;;;;;;;23.53;86.16;97839.78;10284198;28;20057;-51
2023/07/17 00:05:14;;;;;;;25.40;22.75;;;;;;;23.38;87.92;97845.84;10286651;28;20073;-51
2023/07/17 00:10:14;;;;;;;23.70;20.08;;;;;;;22.98;89.39;97848.72;10284579;28;20120;-50
2023/07/17 00:15:13;;;;;;;22.25;19.95;;;;;;;23.01;87.24;97845.91;10285890;28;20059;-51
2023/07/17 00:20:12;;;;;;;25.48;22.58;;;;;;;23.02;88.05;97838.81;10282132;28;20125;-49
2023/07/17 00:25:11;;;;;;;27.83;23.30;;;;;;;23.07;88.46;97841.25;10282498;28;20492;-52
2023/07/17 00:30:10;;;;;;;26.80;23.98;;;;;;;23.01;88.93;97835.31;10279690;28;20424;-51
2023/07/17 00:35:09;;;;;;;26.33;23.58;;;;;;;23.03;90.20;97837.91;10282496;28;20069;-50
2023/07/17 00:40:09;;;;;;;30.75;27.40;;;;;;;23.01;90.79;97843.25;10280628;28;20046;-52
2023/07/17 00:45:08;;;;;;;30.25;27.02;;;;;;;22.95;92.81;97837.41;10277353;28;20132;-51
2023/07/17 00:50:07;;;;;;;27.98;24.88;;;;;;;22.77;92.78;97828.63;10279786;28;20125;-52
2023/07/17 00:55:08;;;;;;;27.98;24.50;;;;;;;22.75;93.13;97823.41;10280661;28;20118;-52
2023/07/17 01:00:08;;;;;;;25.33;22.58;;;;;;;22.85;92.23;97837.03;10280289;28;20117;-51
2023/07/17 01:05:08;;;;;;;22.45;20.05;;;;;;;22.70;89.14;97843.91;10281756;28;20061;-51
2023/07/17 01:10:08;;;;;;;26.20;22.75;;;;;;;22.60;89.35;97816.19;10279956;28;20137;-51
2023/07/17 01:15:07;;;;;;;26.20;23.33;;;;;;;22.69;89.39;97836.88;10281241;28;20108;-49
2023/07/17 01:20:09;;;;;;;24.33;21.73;;;;;;;22.65;89.32;97834.44;10280737;28;20116;-51
2023/07/17 01:25:08;;;;;;;24.70;22.02;;;;;;;22.68;90.06;97834.31;10284371;28;20088;-49
2023/07/17 01:30:08;;;;;;;26.30;23.60;;;;;;;22.70;90.58;97843.03;10292498;28;20072;-51
2023/07/17 01:35:07;;;;;;;27.90;24.88;;;;;;;22.66;91.63;97844.97;10291296;28;20061;-51
2023/07/17 01:40:09;;;;;;;29.13;25.77;;;;;;;22.60;91.60;97847.94;10292463;28;20073;-51
2023/07/17 01:45:08;;;;;;;28.75;25.73;;;;;;;22.54;91.48;97841.13;10291415;28;20069;-51
2023/07/17 01:50:07;;;;;;;24.23;21.77;;;;;;;22.54;91.60;97842.94;10291479;28;20129;-51
2023/07/17 01:55:07;;;;;;;27.55;24.27;;;;;;;22.34;91.46;97844.75;10291145;28;20053;-52
2023/07/17 02:00:07;;;;;;;28.10;25.15;;;;;;;22.13;92.53;97837.78;10289199;28;20061;-52
2023/07/17 02:05:06;;;;;;;29.35;26.13;;;;;;;21.93;93.90;97836.06;10288071;28;20519;-50
2023/07/17 02:10:06;;;;;;;28.42;25.48;;;;;;;21.90;94.69;97852.06;10289713;28;20184;-51
2023/07/17 02:15:11;;;;;;;29.27;26.27;;;;;;;21.67;95.50;97835.44;10294028;28;20080;-52
2023/07/17 02:20:11;;;;;;;28.30;25.33;;;;;;;21.67;96.14;97863.63;10292565;28;20073;-49
2023/07/17 02:25:10;;;;;;;28.25;25.35;;;;;;;21.63;96.22;97854.97;10285293;28;20079;-51
2023/07/17 02:30:09;;;;;;;29.33;26.27;;;;;;;21.52;97.58;97863.38;10288284;28;20587;-49
2023/07/17 02:35:08;;;;;;;30.75;27.30;;;;;;;21.57;97.21;97864.94;10288403;28;20072;-51
2023/07/17 02:40:12;;;;;;;33.33;29.75;;;;;;;21.48;97.00;97851.25;10286976;28;20133;-51
2023/07/17 02:45:11;;;;;;;35.08;31.42;;;;;;;21.58;96.95;97862.25;10285432;28;20571;-51
2023/07/17 02:50:10;;;;;;;34.53;28.45;;;;;;;21.47;97.29;97862.72;10283742;28;20528;-52
2023/07/17 02:55:09;;;;;;;32.30;28.90;;;;;;;21.50;96.93;97861.72;10285992;28;20137;-49
2023/07/17 03:00:10;;;;;;;31.15;27.83;;;;;;;21.47;96.78;97868.00;10284254;28;20053;-51
2023/07/17 03:05:11;;;;;;;32.75;28.77;;;;;;;21.36;96.97;97866.72;10286197;28;20069;-50
2023/07/17 03:10:10;;;;;;;31.65;28.25;;;;;;;20.79;96.61;97777.59;10282800;28;20133;-48
2023/07/17 03:15:10;;;;;;;33.00;29.02;;;;;;;21.40;96.32;97878.88;10283220;28;20057;-50
2023/07/17 03:20:10;;;;;;;32.25;26.90;;;;;;;21.36;96.26;97883.47;10285748;28;20551;-50
2023/07/17 03:25:09;;;;;;;33.10;28.45;;;;;;;21.37;96.29;97879.88;10283491;28;20136;-52
2023/07/17 03:30:09;;;;;;;34.70;29.20;;;;;;;21.19;96.01;97848.94;10284251;28;20472;-53
2023/07/17 03:35:08;;;;;;;33.25;28.42;;;;;;;21.45;96.16;97883.06;10281801;28;20435;-52
2023/07/17 03:40:07;;;;;;;36.40;29.38;;;;;;;21.58;95.73;97887.81;10284791;28;20502;-52
2023/07/17 03:45:07;;;;;;;33.58;28.23;;;;;;;21.67;95.29;97890.03;10282362;28;20100;-53
2023/07/17 03:50:06;;;;;;;32.30;27.05;;;;;;;21.80;94.93;97891.22;10283339;28;20065;-52
2023/07/17 03:55:05;;;;;;;35.92;27.00;;;;;;;21.91;94.82;97896.88;10281246;28;20072;-50
2023/07/17 04:00:09;;;;;;;28.85;25.17;;;;;;;22.06;93.99;97899.78;10282329;28;20058;-51
2023/07/17 04:05:10;;;;;;;29.83;26.52;;;;;;;22.08;93.85;97903.22;10283927;28;20136;-51
2023/07/17 04:10:09;;;;;;;25.23;22.40;;;;;;;22.20;92.54;97907.09;10281390;28;20536;-53
2023/07/17 04:15:08;;;;;;;28.60;24.48;;;;;;;22.29;91.80;97911.97;10283480;28;20444;-53
2023/07/17 04:20:11;;;;;;;25.10;22.45;;;;;;;22.36;90.68;97911.59;10282589;28;20062;-52
2023/07/17 04:25:10;;;;;;;27.63;21.65;;;;;;;22.43;89.65;97919.25;10282882;28;20085;-51
2023/07/17 04:30:09;;;;;;;27.83;21.75;;;;;;;22.46;89.19;97920.00;10285717;28;20045;-52
2023/07/17 04:35:09;;;;;;;25.17;22.23;;;;;;;22.55;88.44;97926.63;10283429;28;20543;-52
2023/07/17 04:40:08;;;;;;;27.33;22.08;;;;;;;22.58;88.12;97929.13;10283202;28;20062;-52
2023/07/17 04:45:07;;;;;;;24.65;19.73;;;;;;;22.64;86.10;97920.03;10284848;28;20061;-52
2023/07/17 04:50:08;;;;;;;20.67;18.48;;;;;;;22.74;85.63;97927.50;10282891;28;20045;-51
2023/07/17 04:55:07;;;;;;;19.55;17.42;;;;;;;22.92;82.86;97927.56;10285311;28;20440;-52
2023/07/17 05:00:09;;;;;;;23.23;17.67;;;;;;;23.02;80.93;97931.47;10285442;28;20049;-49
2023/07/17 05:05:08;;;;;;;20.75;17.50;;;;;;;23.20;81.22;97930.56;10284603;28;20499;-51
2023/07/17 05:10:08;;;;;;;24.83;17.85;;;;;;;23.37;80.37;97939.47;10283864;28;20495;-50
2023/07/17 05:15:07;;;;;;;22.15;17.67;;;;;;;23.62;79.11;97939.13;10284671;28;20076;-49
2023/07/17 05:20:07;;;;;;;19.85;16.90;;;;;;;23.81;78.15;97931.06;10282051;28;20081;-52
2023/07/17 05:25:06;;;;;;;21.58;17.02;;;;;;;24.12;77.58;97937.41;10280380;28;20132;-51
2023/07/17 05:30:06;;;;;;;21.30;17.10;;;;;;;24.29;75.64;97934.78;10281469;28;20137;-52
2023/07/17 05:35:05;;;;;;;22.15;15.73;;;;;;;24.44;72.96;97944.53;10279793;28;20070;-51
2023/07/17 05:40:05;;;;;;;19.67;16.50;;;;;;;24.47;74.18;97951.47;10279992;28;20188;-52
2023/07/17 05:45:05;;;;;;;22.13;16.52;;;;;;;24.68;73.70;97950.31;10280045;28;20534;-50
2023/07/17 05:50:05;;;;;;;21.90;17.25;;;;;;;24.85;73.05;97946.72;10277640;28;20559;-53
2023/07/17 05:55:04;;;;;;;19.52;17.27;;;;;;;24.98;73.43;97946.06;10280864;28;20053;-53
2023/07/17 06:00:04;;;;;;;20.85;17.65;;;;;;;25.10;73.23;97948.84;10279390;28;20066;-52
2023/07/17 06:05:03;;;;;;;24.95;17.27;;;;;;;25.25;70.74;97946.28;10277781;28;20374;-52
2023/07/17 06:10:02;;;;;;;20.42;16.70;;;;;;;25.48;70.48;97937.84;10279940;28;20056;-53
2023/07/17 06:15:03;;;;;;;20.60;16.80;;;;;;;25.63;69.75;97941.41;10284708;28;20105;-52
2023/07/17 06:20:04;;;;;;;20.88;16.05;;;;;;;25.92;68.25;97936.16;10287147;28;20428;-52
2023/07/17 06:25:04;;;;;;;17.95;15.50;;;;;;;26.08;68.41;97931.59;10286529;28;20579;-52
2023/07/17 06:30:04;;;;;;;20.75;16.52;;;;;;;26.37;66.83;97929.00;10285482;28;20160;-51
2023/07/17 06:35:05;;;;;;;20.58;15.82;;;;;;;26.46;64.11;97931.06;10281037;28;20205;-52
2023/07/17 06:40:05;;;;;;;20.38;14.63;;;;;;;26.50;64.71;97921.94;10283150;28;20165;-53
2023/07/17 06:45:04;;;;;;;19.75;14.93;;;;;;;26.71;64.03;97921.53;10283403;28;20137;-50
2023/07/17 06:50:04;;;;;;;22.60;14.15;;;;;;;27.05;62.30;97925.56;10280637;28;20068;-51
2023/07/17 06:55:05;;;;;;;17.42;13.32;;;;;;;27.18;59.94;97917.59;10283971;28;20124;-52
2023/07/17 07:00:05;;;;;;;18.48;13.85;;;;;;;27.44;59.34;97917.69;10284398;28;20084;-53
2023/07/17 07:05:05;;;;;;;16.60;13.50;;;;;;;27.56;57.42;97916.88;10284720;28;20140;-53
2023/07/17 07:10:04;;;;;;;18.25;13.52;;;;;;;27.52;57.52;97894.06;10284242;28;20124;-52
2023/07/17 07:15:05;;;;;;;16.48;12.98;;;;;;;27.75;55.71;97906.69;10282155;28;20586;-52
2023/07/17 07:20:05;;;;;;;17.77;13.55;;;;;;;27.96;55.49;97898.13;10287361;28;20500;-52
2023/07/17 07:25:05;;;;;;;14.70;13.02;;;;;;;28.24;55.13;97891.75;10279941;28;20113;-52
2023/07/17 07:30:04;;;;;;;16.85;13.38;;;;;;;28.53;54.97;97888.84;10284821;28;20165;-51
2023/07/17 07:35:04;;;;;;;16.83;13.30;;;;;;;28.87;55.51;97889.91;10284857;28;20120;-52
2023/07/17 07:40:06;;;;;;;18.35;13.65;;;;;;;29.05;53.91;97890.38;10288526;28;20126;-52
2023/07/17 07:45:05;;;;;;;17.35;12.68;;;;;;;29.35;52.33;97886.41;10283671;28;20141;-53
2023/07/17 07:50:05;;;;;;;15.68;12.05;;;;;;;29.64;50.15;97885.03;10284453;28;20142;-53
2023/07/17 07:55:05;;;;;;;17.10;12.80;;;;;;;29.72;49.34;97881.78;10285967;28;20081;-53
2023/07/17 08:00:05;;;;;;;17.13;11.90;;;;;;;29.86;50.08;97891.41;10285101;28;20075;-51
2023/07/17 08:05:04;;;;;;;16.05;12.55;;;;;;;30.12;49.42;97881.38;10284324;28;20073;-49
2023/07/17 08:10:04;;;;;;;14.27;11.25;;;;;;;30.09;47.05;97846.78;10286111;28;20073;-50
2023/07/17 08:15:04;;;;;;;15.80;12.07;;;;;;;30.34;47.53;97884.03;10283282;28;20128;-52
2023/07/17 08:20:06;;;;;;;14.40;11.82;;;;;;;30.32;46.29;97885.13;10285122;28;20065;-51
2023/07/17 08:25:06;;;;;;;12.18;10.57;;;;;;;30.55;45.34;97876.13;10282573;28;20138;-52
2023/07/17 08:30:05;;;;;;;12.60;11.30;;;;;;;30.71;44.86;97870.38;10285731;28;20141;-51
2023/07/17 08:35:05;;;;;;;11.73;10.48;;;;;;;30.82;45.36;97872.19;10283938;28;20201;-51
2023/07/17 08:40:05;;;;;;;15.70;12.07;;;;;;;30.96;44.77;97868.41;10298840;28;20771;-52
2023/07/17 08:45:04;;;;;;;15.18;11.43;;;;;;;31.21;44.48;97866.34;10283641;28;20170;-52
2023/07/17 08:50:04;;;;;;;16.17;11.98;;;;;;;31.31;42.81;97867.25;10283445;28;20144;-53
2023/07/17 08:55:04;;;;;;;12.15;10.73;;;;;;;31.54;43.53;97858.13;10284915;28;20081;-53
2023/07/17 09:00:04;;;;;;;14.38;11.15;;;;;;;31.70;43.43;97857.69;10285427;28;20072;-51
2023/07/17 09:05:04;;;;;;;14.23;10.45;;;;;;;31.72;42.01;97854.88;10285785;28;20072;-52
2023/07/17 09:10:22;;;;;;;12.70;10.35;;;;;;;31.95;40.85;97853.72;10282641;28;20177;-52
2023/07/17 09:15:22;;;;;;;14.55;10.10;;;;;;;31.93;38.54;97850.34;10281623;28;20073;-53
2023/07/17 09:20:21;;;;;;;12.45;9.70;;;;;;;31.90;37.26;97850.59;10279698;28;20073;-52
2023/07/17 09:25:24;;;;;;;13.85;10.30;;;;;;;32.04;37.51;97849.44;10282190;28;20543;-52
2023/07/17 09:30:25;;;;;;;13.05;10.15;;;;;;;32.30;37.61;97844.44;10280950;28;20549;-52
2023/07/17 09:35:24;;;;;;;12.38;10.02;;;;;;;32.40;37.82;97831.88;10275436;28;20531;-53
2023/07/17 09:40:26;;;;;;;15.35;10.32;;;;;;;32.54;38.65;97845.94;10276725;28;20041;-54
2023/07/17 09:45:26;;;;;;;11.20;9.43;;;;;;;32.61;36.87;97842.56;10278579;28;20125;-53
2023/07/17 09:50:26;;;;;;;11.57;10.38;;;;;;;32.61;38.05;97834.50;10288796;28;20843;-53
2023/07/17 09:55:26;;;;;;;12.48;9.98;;;;;;;32.71;36.83;97837.22;10290681;28;20523;-53
2023/07/17 10:00:27;;;;;;;12.15;10.15;;;;;;;32.71;35.72;97842.59;10290615;28;20049;-53
2023/07/17 10:05:27;;;;;;;14.73;8.98;;;;;;;32.71;36.51;97844.44;10289045;28;20120;-53
2023/07/17 10:10:26;;;;;;;10.88;9.15;;;;;;;32.97;37.13;97837.50;10288098;28;20128;-52
2023/07/17 10:15:26;;;;;;;12.68;9.70;;;;;;;33.35;36.42;97837.69;10288611;28;20124;-53
2023/07/17 10:20:29;;;;;;;13.43;9.35;;;;;;;33.56;34.26;97821.38;10289003;28;20056;-50
2023/07/17 10:25:28;;;;;;;10.70;9.45;;;;;;;33.61;33.96;97811.91;10284074;28;20129;-52
2023/07/17 10:30:35;;;;;;;10.70;8.70;;;;;;;33.49;33.46;97810.34;10287289;28;20145;-53
2023/07/17 10:36:00;;;;;;;11.37;9.20;;;;;;;33.26;33.89;97805.28;10288863;28;20788;-54
2023/07/17 10:41:14;;;;;;;9.40;8.40;;;;;;;33.55;33.77;97800.84;10288946;28;20073;-54
2023/07/17 10:46:13;;;;;;;10.00;8.77;;;;;;;33.77;32.53;97794.28;10286175;28;20072;-55
2023/07/17 10:51:12;;;;;;;11.00;9.02;;;;;;;33.75;33.70;97783.69;10287089;28;20032;-54
2023/07/17 10:56:12;;;;;;;12.50;9.20;;;;;;;33.66;33.24;97800.72;10287704;28;20080;-52
2023/07/17 11:01:11;;;;;;;9.73;7.35;;;;;;;33.75;29.37;97799.00;10287971;28;20061;-53
2023/07/17 11:06:10;;;;;;;9.02;7.80;;;;;;;33.83;29.42;97793.69;10285627;28;20141;-52
2023/07/17 11:11:10;;;;;;;10.10;8.48;;;;;;;34.00;30.28;97787.53;10288273;28;20030;-53
2023/07/17 11:16:10;;;;;;;10.43;7.22;;;;;;;34.18;28.09;97794.88;10287397;28;20148;-53
2023/07/17 11:21:09;;;;;;;10.10;8.25;;;;;;;34.19;29.98;97794.72;10287840;28;20066;-53
2023/07/17 11:26:08;;;;;;;9.45;8.38;;;;;;;34.40;30.71;97789.06;10286390;28;20065;-53
2023/07/17 11:31:22;;;;;;;10.07;8.85;;;;;;;34.61;31.80;97785.25;10285739;28;20121;-53
2023/07/17 11:36:21;;;;;;;10.13;7.97;;;;;;;34.96;31.67;97778.19;10289151;28;20073;-52
2023/07/17 11:41:20;;;;;;;9.68;7.93;;;;;;;35.07;30.65;97769.84;10287986;28;20017;-50
2023/07/17 11:46:19;;;;;;;11.40;7.95;;;;;;;35.14;27.94;97762.88;10288255;28;20030;-52
2023/07/17 11:51:23;;;;;;;11.00;7.65;;;;;;;35.16;27.85;97766.25;10285451;28;20096;-53
2023/07/17 11:56:42;;;;;;;9.45;8.43;;;;;;;35.07;27.63;97762.59;10286240;28;20124;-53
2023/07/17 12:01:41;;;;;;;9.63;7.70;;;;;;;35.09;28.60;97757.06;10284368;28;21128;-53
2023/07/17 12:06:40;;;;;;;8.52;7.38;;;;;;;35.20;27.80;97753.28;10284557;28;20699;-52
2023/07/17 12:11:42;;;;;;;8.32;7.45;;;;;;;35.31;26.68;97761.97;10278160;28;20403;-53
2023/07/17 12:16:42;;;;;;;10.20;8.50;;;;;;;34.91;26.96;97766.00;10282495;28;20112;-53
2023/07/17 12:21:41;;;;;;;10.50;8.27;;;;;;;35.06;26.69;97760.91;10280181;28;20072;-52
2023/07/17 12:26:40;;;;;;;9.85;7.95;;;;;;;35.51;27.79;97756.38;10287453;28;20057;-53
2023/07/17 12:31:39;;;;;;;9.27;7.90;;;;;;;35.57;26.87;97744.94;10283656;28;20134;-52
2023/07/17 12:36:38;;;;;;;8.73;7.82;;;;;;;35.76;26.94;97749.28;10285730;28;20025;-52
2023/07/17 12:41:37;;;;;;;10.43;8.25;;;;;;;35.78;27.44;97751.81;10286989;28;20053;-52
2023/07/17 12:46:36;;;;;;;11.25;8.65;;;;;;;35.53;28.06;97743.56;10287705;28;20030;-54
2023/07/17 12:51:35;;;;;;;8.95;8.05;;;;;;;35.84;28.46;97740.38;10285922;28;20408;-52
2023/07/17 12:56:34;;;;;;;10.35;8.88;;;;;;;35.91;28.40;97746.84;10283597;28;20037;-52
2023/07/17 13:01:34;;;;;;;9.80;8.30;;;;;;;35.95;28.85;97742.81;10285421;28;20080;-53
2023/07/17 13:06:33;;;;;;;9.48;8.35;;;;;;;35.69;28.12;97726.63;10283710;28;20150;-54
2023/07/17 13:11:32;;;;;;;9.65;8.18;;;;;;;35.65;28.07;97742.31;10283142;28;20412;-54
2023/07/17 13:16:32;;;;;;;9.40;8.27;;;;;;;35.72;29.00;97729.88;10280207;28;20112;-54
2023/07/17 13:21:31;;;;;;;12.20;8.50;;;;;;;35.85;29.03;97731.25;10279958;28;20066;-54
2023/07/17 13:26:33;;;;;;;10.02;9.02;;;;;;;35.85;29.29;97725.88;10279613;28;20033;-52
2023/07/17 13:31:33;;;;;;;11.68;8.82;;;;;;;35.79;29.11;97723.84;10279089;28;20141;-52
2023/07/17 13:36:32;;;;;;;10.52;8.60;;;;;;;35.60;28.00;97711.41;10277845;28;20117;-54
2023/07/17 13:41:37;;;;;;;9.52;8.52;;;;;;;35.59;28.48;97709.72;10279370;28;20040;-52
2023/07/17 13:46:37;;;;;;;9.40;8.40;;;;;;;35.45;28.90;97697.63;10277801;28;20145;-51
2023/07/17 13:51:36;;;;;;;13.25;9.90;;;;;;;35.61;29.96;97694.22;10280329;28;20133;-51
2023/07/17 13:56:35;;;;;;;12.45;8.90;;;;;;;35.41;30.60;97696.25;10279900;28;20559;-53
2023/07/17 14:01:35;;;;;;;10.68;9.30;;;;;;;35.65;30.62;97696.44;10283062;28;20125;-52
2023/07/17 14:06:34;;;;;;;13.20;9.30;;;;;;;35.79;30.29;97694.97;10280025;28;20120;-51
2023/07/17 14:11:33;;;;;;;11.40;9.82;;;;;;;35.73;30.43;97690.22;10279218;28;20172;-52
2023/07/17 14:16:32;;;;;;;11.05;9.52;;;;;;;35.73;30.57;97666.75;10287640;28;20121;-52
2023/07/17 14:21:31;;;;;;;11.98;9.70;;;;;;;35.87;29.83;97689.59;10279073;28;20033;-52
2023/07/17 14:26:30;;;;;;;12.00;9.80;;;;;;;35.69;29.42;97694.22;10279788;28;20077;-52
2023/07/17 14:31:30;;;;;;;12.27;9.23;;;;;;;35.72;29.95;97683.97;10280298;28;20038;-52
2023/07/17 14:36:29;;;;;;;12.25;9.93;;;;;;;35.83;30.11;97679.28;10288085;28;20133;-52
2023/07/17 14:41:27;;;;;;;11.15;9.88;;;;;;;35.81;29.76;97675.88;10289890;28;20049;-54
2023/07/17 14:46:28;;;;;;;12.35;10.18;;;;;;;35.63;30.81;97670.59;10297952;28;20046;-51
2023/07/17 14:51:27;;;;;;;12.57;10.13;;;;;;;35.54;30.46;97678.63;10305349;28;20136;-52
2023/07/17 14:56:26;;;;;;;11.73;9.73;;;;;;;35.22;30.52;97673.03;10288567;28;20041;-52
2023/07/17 15:01:25;;;;;;;11.00;9.80;;;;;;;35.21;31.59;97644.41;10288417;28;20104;-53
2023/07/17 15:06:24;;;;;;;11.38;10.27;;;;;;;35.43;30.97;97669.97;10288437;28;20108;-52
2023/07/17 15:11:24;;;;;;;10.95;9.77;;;;;;;35.10;31.29;97651.72;10288462;28;20116;-53
2023/07/17 15:16:23;;;;;;;10.95;9.85;;;;;;;35.26;31.67;97653.69;10285923;28;20148;-51
2023/07/17 15:21:22;;;;;;;10.90;9.57;;;;;;;35.27;30.50;97657.22;10287046;28;20025;-52
2023/07/17 15:26:21;;;;;;;11.60;9.77;;;;;;;35.27;30.81;97662.63;10287922;28;20046;-53
2023/07/17 15:31:20;;;;;;;12.85;10.10;;;;;;;35.22;31.14;97657.72;10287451;28;20135;-53
2023/07/17 15:36:19;;;;;;;11.32;9.57;;;;;;;35.25;31.58;97654.69;10283852;28;20116;-53
2023/07/17 15:41:18;;;;;;;12.75;9.30;;;;;;;35.10;31.85;97646.34;10284273;28;20022;-54
2023/07/17 15:46:17;;;;;;;15.65;9.40;;;;;;;35.12;31.56;97649.72;10284187;28;20535;-52
2023/07/17 15:51:16;;;;;;;13.35;9.98;;;;;;;35.00;32.96;97650.13;10284175;28;20046;-54
2023/07/17 15:56:15;;;;;;;11.00;9.85;;;;;;;35.00;33.17;97628.56;10281185;28;20092;-51
2023/07/17 16:01:16;;;;;;;15.60;9.95;;;;;;;34.97;32.34;97639.66;10281547;28;20394;-52
2023/07/17 16:06:15;;;;;;;12.68;9.93;;;;;;;34.74;32.94;97650.97;10281016;28;20211;-53
2023/07/17 16:11:14;;;;;;;11.77;9.75;;;;;;;34.69;32.53;97626.34;10282390;28;20030;-55
2023/07/17 16:16:13;;;;;;;12.80;10.02;;;;;;;34.60;33.93;97640.72;10281183;28;20050;-53
2023/07/17 16:21:12;;;;;;;10.88;9.77;;;;;;;34.49;33.28;97636.41;10282406;28;20038;-52
2023/07/17 16:26:11;;;;;;;11.68;10.57;;;;;;;34.38;33.50;97636.63;10279888;28;20061;-52
2023/07/17 16:31:10;;;;;;;13.07;10.27;;;;;;;34.21;32.55;97643.72;10281861;28;20121;-53
2023/07/17 16:36:09;;;;;;;12.63;10.20;;;;;;;34.03;32.12;97616.78;10279342;28;20045;-51
2023/07/17 16:41:09;;;;;;;11.57;9.38;;;;;;;34.14;33.05;97642.66;10280784;28;20025;-52
2023/07/17 16:46:08;;;;;;;12.48;10.63;;;;;;;34.11;33.37;97642.97;10281068;28;20515;-52
2023/07/17 16:51:07;;;;;;;13.70;10.50;;;;;;;34.15;33.19;97647.06;10279619;28;20469;-53
2023/07/17 16:56:06;;;;;;;13.60;10.98;;;;;;;34.24;35.66;97643.44;10280594;28;20033;-53
2023/07/17 17:01:06;;;;;;;13.00;10.82;;;;;;;34.19;37.82;97637.63;10279647;28;20033;-51
2023/07/17 17:06:05;;;;;;;14.38;11.20;;;;;;;33.99;38.03;97651.22;10284090;28;20528;-51
2023/07/17 17:11:04;;;;;;;14.30;12.40;;;;;;;33.67;38.89;97655.22;10282078;28;20192;-51
2023/07/17 17:16:03;;;;;;;16.05;11.40;;;;;;;33.34;39.51;97645.03;10278395;28;20400;-52
2023/07/17 17:21:02;;;;;;;13.07;11.02;;;;;;;33.05;40.73;97651.31;10281002;28;20057;-52
2023/07/17 17:26:01;;;;;;;14.25;11.63;;;;;;;32.69;41.47;97652.94;10278831;28;20131;-53
2023/07/17 17:31:00;;;;;;;13.77;11.68;;;;;;;32.25;41.88;97652.47;10280777;28;20124;-50
2023/07/17 17:35:59;;;;;;;15.00;12.52;;;;;;;31.83;42.67;97652.69;10277499;28;20040;-53
2023/07/17 17:40:58;;;;;;;16.92;12.13;;;;;;;31.39;43.19;97658.31;10279375;28;20057;-52
2023/07/17 17:45:57;;;;;;;15.85;12.55;;;;;;;31.07;44.40;97663.78;10278223;28;20064;-52
2023/07/17 17:50:56;;;;;;;15.45;12.57;;;;;;;30.73;45.57;97661.31;10278442;28;20044;-53
2023/07/17 17:55:55;;;;;;;14.30;12.48;;;;;;;30.48;45.85;97670.56;10278731;28;20046;-52
2023/07/17 18:00:54;;;;;;;14.52;13.00;;;;;;;30.13;46.45;97667.13;10277915;28;20037;-50
2023/07/17 18:05:54;;;;;;;14.02;12.38;;;;;;;29.86;46.89;97677.38;10278140;28;20034;-48
2023/07/17 18:10:53;;;;;;;14.57;13.07;;;;;;;29.61;47.13;97667.81;10285343;28;20084;-52
2023/07/17 18:15:52;;;;;;;16.38;13.30;;;;;;;29.38;47.86;97680.34;10286415;28;20036;-52
2023/07/17 18:20:51;;;;;;;17.65;14.15;;;;;;;29.16;48.75;97686.50;10286942;28;20117;-53
2023/07/17 18:25:50;;;;;;;18.27;14.25;;;;;;;29.01;49.63;97689.34;10284893;28;20058;-52
2023/07/17 18:30:48;;;;;;;16.05;14.45;;;;;;;28.83;50.47;97682.78;10287071;28;20054;-54
2023/07/17 18:35:48;;;;;;;18.05;14.40;;;;;;;28.70;50.88;97671.34;10284688;28;20144;-53
2023/07/17 18:40:47;;;;;;;19.63;15.10;;;;;;;28.58;50.68;97689.94;10286906;28;20112;-53
2023/07/17 18:45:46;;;;;;;16.75;13.07;;;;;;;28.43;50.43;97696.44;10285099;28;20040;-52
2023/07/17 18:50:45;;;;;;;17.40;12.70;;;;;;;27.86;49.39;97636.56;10283644;28;20036;-53
2023/07/17 18:55:44;;;;;;;15.75;14.07;;;;;;;28.04;49.72;97704.59;10286043;28;20026;-54
2023/07/17 19:00:43;;;;;;;20.20;13.63;;;;;;;27.91;49.08;97713.59;10284664;28;20036;-50
2023/07/17 19:05:42;;;;;;;16.52;13.80;;;;;;;27.70;49.18;97706.16;10283413;28;20121;-54
2023/07/17 19:10:43;;;;;;;20.30;15.05;;;;;;;27.57;50.43;97716.00;10284819;28;21217;-51
2023/07/17 19:15:42;;;;;;;18.17;15.32;;;;;;;27.47;52.36;97729.13;10284068;28;20073;-52
2023/07/17 19:20:41;;;;;;;19.75;14.27;;;;;;;27.32;53.74;97732.84;10284291;28;20124;-52
2023/07/17 19:25:40;;;;;;;16.02;14.38;;;;;;;27.20;54.64;97735.38;10282818;28;20133;-49
2023/07/17 19:30:39;;;;;;;16.13;13.88;;;;;;;27.05;54.98;97728.47;10283410;28;20042;-51
2023/07/17 19:35:38;;;;;;;16.90;13.98;;;;;;;26.88;54.73;97724.25;10283105;28;20117;-52
2023/07/17 19:40:37;;;;;;;16.65;13.38;;;;;;;26.72;54.52;97718.25;10282546;28;20077;-51
2023/07/17 19:45:36;;;;;;;17.88;14.70;;;;;;;26.64;55.35;97725.91;10281826;28;20487;-53
2023/07/17 19:50:35;;;;;;;19.75;16.02;;;;;;;26.50;56.29;97729.47;10280891;28;20132;-51
2023/07/17 19:55:34;;;;;;;22.40;16.10;;;;;;;26.31;56.90;97705.91;10298169;28;20499;-52
2023/07/17 20:00:34;;;;;;;21.60;17.90;;;;;;;26.23;58.00;97733.00;10281123;28;20542;-53
2023/07/17 20:05:33;;;;;;;21.58;19.30;;;;;;;26.08;57.77;97713.53;10282962;28;20057;-52
2023/07/17 20:10:32;;;;;;;19.95;16.60;;;;;;;26.03;57.72;97730.75;10281028;28;20076;-53
2023/07/17 20:15:31;;;;;;;21.77;17.15;;;;;;;25.91;57.68;97732.38;10282395;28;20076;-53
2023/07/17 20:20:30;;;;;;;20.23;17.30;;;;;;;25.73;62.26;97729.91;10283842;28;20037;-52
2023/07/17 20:25:29;;;;;;;20.55;18.02;;;;;;;25.66;63.85;97736.56;10280854;28;20120;-51
2023/07/17 20:30:29;;;;;;;20.65;17.75;;;;;;;25.61;64.30;97735.16;10281183;28;20571;-52
2023/07/17 20:35:28;;;;;;;22.65;19.00;;;;;;;25.45;66.67;97725.44;10283589;28;20073;-52
2023/07/17 20:40:27;;;;;;;28.35;19.90;;;;;;;25.40;68.57;97737.31;10280515;28;20157;-52
2023/07/17 20:45:32;;;;;;;21.23;18.85;;;;;;;25.19;69.99;97732.38;10281831;28;20029;-52
2023/07/17 20:50:31;;;;;;;23.83;19.35;;;;;;;25.10;70.31;97738.22;10280497;28;20128;-50
2023/07/17 20:55:30;;;;;;;20.75;18.35;;;;;;;25.00;70.54;97735.28;10281535;28;20052;-52
2023/07/17 21:00:29;;;;;;;21.80;19.48;;;;;;;24.89;71.27;97730.63;10279335;28;20026;-53
2023/07/17 21:05:30;;;;;;;22.02;19.52;;;;;;;24.82;71.46;97734.53;10281527;28;20453;-50
2023/07/17 21:10:29;;;;;;;22.33;19.48;;;;;;;24.72;72.67;97735.19;10284846;28;20149;-51
2023/07/17 21:15:28;;;;;;;30.92;20.27;;;;;;;24.62;73.30;97735.72;10283248;28;20116;-53
2023/07/17 21:20:27;;;;;;;24.08;20.38;;;;;;;24.56;73.44;97744.03;10282228;28;20186;-52
2023/07/17 21:25:26;;;;;;;22.70;19.73;;;;;;;24.51;73.27;97737.28;10279959;28;20133;-51
2023/07/17 21:30:25;;;;;;;24.83;21.98;;;;;;;24.47;73.74;97737.47;10280203;28;20514;-52
2023/07/17 21:35:25;;;;;;;25.27;22.65;;;;;;;24.10;74.52;97696.25;10279311;28;20455;-52
2023/07/17 21:40:24;;;;;;;22.52;20.23;;;;;;;24.32;74.69;97746.28;10279709;28;20559;-51
2023/07/17 21:45:23;;;;;;;23.92;20.20;;;;;;;24.26;75.11;97754.59;10286254;28;20475;-52
2023/07/17 21:50:22;;;;;;;24.70;19.40;;;;;;;24.15;73.73;97746.38;10285719;28;20034;-51
2023/07/17 21:55:21;;;;;;;22.10;19.67;;;;;;;24.04;72.98;97761.06;10287763;28;20448;-50
2023/07/17 22:00:20;;;;;;;24.45;19.50;;;;;;;23.93;72.54;97752.84;10286141;28;20073;-52
2023/07/17 22:05:19;;;;;;;21.33;18.63;;;;;;;23.85;72.19;97765.69;10286570;28;20029;-51
2023/07/17 22:10:18;;;;;;;21.33;19.13;;;;;;;23.77;71.70;97770.53;10276369;28;20522;-49
2023/07/17 22:15:17;;;;;;;23.15;19.63;;;;;;;23.70;72.17;97766.50;10285344;28;20510;-53
2023/07/17 22:20:16;;;;;;;22.67;20.15;;;;;;;23.62;72.69;97775.72;10284361;28;20543;-50
2023/07/17 22:25:16;;;;;;;28.02;22.52;;;;;;;23.57;74.68;97776.91;10284323;28;20081;-51
2023/07/17 22:30:16;;;;;;;23.75;20.50;;;;;;;23.48;76.06;97772.09;10284600;28;20129;-52
2023/07/17 22:35:15;;;;;;;25.98;22.67;;;;;;;23.41;76.61;97774.19;10286243;28;20169;-53
2023/07/17 22:40:14;;;;;;;24.10;21.60;;;;;;;23.34;77.84;97770.16;10284791;28;20506;-51
2023/07/17 22:45:13;;;;;;;24.45;21.65;;;;;;;23.25;78.60;97775.91;10286811;28;20606;-51